sensor_id;sensor_type;location;lat;lon;timestamp;temperature;humidity
25450;DHT22;13371;52.080;5.624;2023-02-28T00:00:20;4.70;93.90
25450;DHT22;13371;52.080;5.624;2023-02-28T00:02:46;4.70;94.40
25450;DHT22;13371;52.080;5.624;2023-02-28T00:05:15;4.80;94.30
25450;DHT22;13371;52.080;5.624;2023-02-28T00:07:40;4.90;94.70
25450;DHT22;13371;52.080;5.624;2023-02-28T00:10:10;5.10;94.10
25450;DHT22;13371;52.080;5.624;2023-02-28T00:12:37;5.00;94.00
25450;DHT22;13371;52.080;5.624;2023-02-28T00:15:06;4.90;94.50
25450;DHT22;13371;52.080;5.624;2023-02-28T00:17:32;4.90;94.60
25450;DHT22;13371;52.080;5.624;2023-02-28T00:19:57;5.00;94.70
25450;DHT22;13371;52.080;5.624;2023-02-28T00:22:36;5.00;94.80
25450;DHT22;13371;52.080;5.624;2023-02-28T00:25:01;5.00;94.70
25450;DHT22;13371;52.080;5.624;2023-02-28T00:27:27;5.20;94.70
25450;DHT22;13371;52.080;5.624;2023-02-28T00:29:52;5.20;94.50
25450;DHT22;13371;52.080;5.624;2023-02-28T00:32:19;5.10;94.50
25450;DHT22;13371;52.080;5.624;2023-02-28T00:34:45;5.10;94.70
25450;DHT22;13371;52.080;5.624;2023-02-28T00:37:11;5.20;94.50
25450;DHT22;13371;52.080;5.624;2023-02-28T00:39:40;5.40;93.90
25450;DHT22;13371;52.080;5.624;2023-02-28T00:42:07;5.60;93.50
25450;DHT22;13371;52.080;5.624;2023-02-28T00:44:33;5.20;93.30
25450;DHT22;13371;52.080;5.624;2023-02-28T00:46:59;5.00;93.80
25450;DHT22;13371;52.080;5.624;2023-02-28T00:49:26;4.90;94.30
25450;DHT22;13371;52.080;5.624;2023-02-28T00:51:52;5.00;94.80
25450;DHT22;13371;52.080;5.624;2023-02-28T00:54:19;4.90;94.40
25450;DHT22;13371;52.080;5.624;2023-02-28T00:56:44;4.80;94.80
25450;DHT22;13371;52.080;5.624;2023-02-28T00:59:11;5.00;94.70
25450;DHT22;13371;52.080;5.624;2023-02-28T01:01:37;5.00;94.50
25450;DHT22;13371;52.080;5.624;2023-02-28T01:04:03;5.10;94.90
25450;DHT22;13371;52.080;5.624;2023-02-28T01:06:30;4.90;94.80
25450;DHT22;13371;52.080;5.624;2023-02-28T01:08:55;4.90;95.20
25450;DHT22;13371;52.080;5.624;2023-02-28T01:11:21;4.70;95.50
25450;DHT22;13371;52.080;5.624;2023-02-28T01:13:47;4.50;96.10
25450;DHT22;13371;52.080;5.624;2023-02-28T01:16:13;4.60;96.60
25450;DHT22;13371;52.080;5.624;2023-02-28T01:18:38;4.80;95.90
25450;DHT22;13371;52.080;5.624;2023-02-28T01:21:10;4.80;96.00
25450;DHT22;13371;52.080;5.624;2023-02-28T01:23:36;4.70;96.10
25450;DHT22;13371;52.080;5.624;2023-02-28T01:26:13;5.10;95.80
25450;DHT22;13371;52.080;5.624;2023-02-28T01:28:40;5.00;95.60
25450;DHT22;13371;52.080;5.624;2023-02-28T01:31:07;5.10;95.50
25450;DHT22;13371;52.080;5.624;2023-02-28T01:33:33;5.20;95.20
25450;DHT22;13371;52.080;5.624;2023-02-28T01:36:03;5.30;95.20
25450;DHT22;13371;52.080;5.624;2023-02-28T01:38:29;5.20;95.30
25450;DHT22;13371;52.080;5.624;2023-02-28T01:40:55;5.20;95.10
25450;DHT22;13371;52.080;5.624;2023-02-28T01:45:52;5.40;95.00
25450;DHT22;13371;52.080;5.624;2023-02-28T01:48:19;5.60;94.40
25450;DHT22;13371;52.080;5.624;2023-02-28T01:50:46;5.50;94.50
25450;DHT22;13371;52.080;5.624;2023-02-28T01:53:23;5.20;95.00
25450;DHT22;13371;52.080;5.624;2023-02-28T01:56:00;5.50;94.90
25450;DHT22;13371;52.080;5.624;2023-02-28T01:58:28;5.30;94.80
25450;DHT22;13371;52.080;5.624;2023-02-28T02:00:54;5.70;94.40
25450;DHT22;13371;52.080;5.624;2023-02-28T02:03:20;5.70;94.30
25450;DHT22;13371;52.080;5.624;2023-02-28T02:05:46;5.60;94.40
25450;DHT22;13371;52.080;5.624;2023-02-28T02:08:25;5.30;94.30
25450;DHT22;13371;52.080;5.624;2023-02-28T02:11:00;5.40;94.50
25450;DHT22;13371;52.080;5.624;2023-02-28T02:17:02;5.60;94.60
25450;DHT22;13371;52.080;5.624;2023-02-28T02:22:27;5.80;94.20
25450;DHT22;13371;52.080;5.624;2023-02-28T02:25:26;5.40;94.40
25450;DHT22;13371;52.080;5.624;2023-02-28T02:28:20;5.30;94.90
25450;DHT22;13371;52.080;5.624;2023-02-28T02:37:15;5.40;94.90
25450;DHT22;13371;52.080;5.624;2023-02-28T02:42:40;5.50;94.70
25450;DHT22;13371;52.080;5.624;2023-02-28T02:45:14;5.60;94.50
25450;DHT22;13371;52.080;5.624;2023-02-28T02:47:43;5.40;94.50
25450;DHT22;13371;52.080;5.624;2023-02-28T02:50:14;5.50;94.80
25450;DHT22;13371;52.080;5.624;2023-02-28T02:52:46;5.50;94.50
25450;DHT22;13371;52.080;5.624;2023-02-28T02:55:14;5.60;94.40
25450;DHT22;13371;52.080;5.624;2023-02-28T02:57:54;5.60;94.40
25450;DHT22;13371;52.080;5.624;2023-02-28T03:00:26;5.40;94.60
25450;DHT22;13371;52.080;5.624;2023-02-28T03:02:55;5.30;95.00
25450;DHT22;13371;52.080;5.624;2023-02-28T03:05:28;5.60;94.80
25450;DHT22;13371;52.080;5.624;2023-02-28T03:07:55;5.80;94.60
25450;DHT22;13371;52.080;5.624;2023-02-28T03:13:10;5.70;94.30
25450;DHT22;13371;52.080;5.624;2023-02-28T03:16:08;5.90;94.20
25450;DHT22;13371;52.080;5.624;2023-02-28T03:18:47;5.60;94.50
25450;DHT22;13371;52.080;5.624;2023-02-28T03:26:26;5.70;94.90
25450;DHT22;13371;52.080;5.624;2023-02-28T03:29:06;5.80;94.50
25450;DHT22;13371;52.080;5.624;2023-02-28T03:31:43;5.90;94.10
25450;DHT22;13371;52.080;5.624;2023-02-28T03:34:17;6.00;94.10
25450;DHT22;13371;52.080;5.624;2023-02-28T03:36:49;5.90;94.20
25450;DHT22;13371;52.080;5.624;2023-02-28T03:39:19;6.00;93.80
25450;DHT22;13371;52.080;5.624;2023-02-28T03:41:51;6.10;93.60
25450;DHT22;13371;52.080;5.624;2023-02-28T03:44:28;6.00;93.80
25450;DHT22;13371;52.080;5.624;2023-02-28T03:47:00;6.10;93.60
25450;DHT22;13371;52.080;5.624;2023-02-28T03:49:32;5.80;94.10
25450;DHT22;13371;52.080;5.624;2023-02-28T03:52:02;5.80;93.80
25450;DHT22;13371;52.080;5.624;2023-02-28T03:54:36;5.70;93.90
25450;DHT22;13371;52.080;5.624;2023-02-28T03:59:47;5.30;93.70
25450;DHT22;13371;52.080;5.624;2023-02-28T04:02:13;4.90;94.40
25450;DHT22;13371;52.080;5.624;2023-02-28T04:04:39;4.90;94.40
25450;DHT22;13371;52.080;5.624;2023-02-28T04:07:13;5.20;94.20
25450;DHT22;13371;52.080;5.624;2023-02-28T04:09:40;5.20;93.80
25450;DHT22;13371;52.080;5.624;2023-02-28T04:12:05;4.40;93.90
25450;DHT22;13371;52.080;5.624;2023-02-28T04:14:31;4.40;94.30
25450;DHT22;13371;52.080;5.624;2023-02-28T04:16:56;4.00;95.10
25450;DHT22;13371;52.080;5.624;2023-02-28T04:19:22;3.90;95.00
25450;DHT22;13371;52.080;5.624;2023-02-28T04:21:50;4.10;94.90
25450;DHT22;13371;52.080;5.624;2023-02-28T04:24:19;3.60;96.20
25450;DHT22;13371;52.080;5.624;2023-02-28T04:26:47;3.80;95.90
25450;DHT22;13371;52.080;5.624;2023-02-28T04:29:18;3.70;96.40
25450;DHT22;13371;52.080;5.624;2023-02-28T04:31:44;4.10;95.70
25450;DHT22;13371;52.080;5.624;2023-02-28T04:34:10;4.20;95.10
25450;DHT22;13371;52.080;5.624;2023-02-28T04:36:35;4.40;94.40
25450;DHT22;13371;52.080;5.624;2023-02-28T04:39:01;4.50;94.60
25450;DHT22;13371;52.080;5.624;2023-02-28T04:41:27;4.40;94.10
25450;DHT22;13371;52.080;5.624;2023-02-28T04:43:52;4.00;95.00
25450;DHT22;13371;52.080;5.624;2023-02-28T04:46:18;4.50;94.70
25450;DHT22;13371;52.080;5.624;2023-02-28T04:48:44;4.00;94.50
25450;DHT22;13371;52.080;5.624;2023-02-28T04:51:13;4.00;95.30
25450;DHT22;13371;52.080;5.624;2023-02-28T04:53:40;3.80;95.40
25450;DHT22;13371;52.080;5.624;2023-02-28T04:56:08;4.30;95.20
25450;DHT22;13371;52.080;5.624;2023-02-28T04:58:35;4.80;94.30
25450;DHT22;13371;52.080;5.624;2023-02-28T05:03:46;5.20;93.30
25450;DHT22;13371;52.080;5.624;2023-02-28T05:06:12;4.90;92.90
25450;DHT22;13371;52.080;5.624;2023-02-28T05:08:38;5.00;93.70
25450;DHT22;13371;52.080;5.624;2023-02-28T05:11:06;5.20;93.20
25450;DHT22;13371;52.080;5.624;2023-02-28T05:13:33;5.40;92.90
25450;DHT22;13371;52.080;5.624;2023-02-28T05:16:00;5.60;92.60
25450;DHT22;13371;52.080;5.624;2023-02-28T05:18:25;5.60;92.30
25450;DHT22;13371;52.080;5.624;2023-02-28T05:20:51;5.70;92.40
25450;DHT22;13371;52.080;5.624;2023-02-28T05:23:17;6.10;92.20
25450;DHT22;13371;52.080;5.624;2023-02-28T05:25:45;6.30;92.20
25450;DHT22;13371;52.080;5.624;2023-02-28T05:28:10;6.30;92.20
25450;DHT22;13371;52.080;5.624;2023-02-28T05:30:39;6.50;92.10
25450;DHT22;13371;52.080;5.624;2023-02-28T05:33:04;6.60;91.70
25450;DHT22;13371;52.080;5.624;2023-02-28T05:35:30;6.50;91.50
25450;DHT22;13371;52.080;5.624;2023-02-28T05:37:55;6.40;91.90
25450;DHT22;13371;52.080;5.624;2023-02-28T05:40:21;6.30;91.80
25450;DHT22;13371;52.080;5.624;2023-02-28T05:42:47;5.90;91.80
25450;DHT22;13371;52.080;5.624;2023-02-28T05:45:12;6.00;92.00
25450;DHT22;13371;52.080;5.624;2023-02-28T05:47:38;5.90;92.10
25450;DHT22;13371;52.080;5.624;2023-02-28T05:50:05;5.60;92.70
25450;DHT22;13371;52.080;5.624;2023-02-28T05:52:31;5.60;92.60
25450;DHT22;13371;52.080;5.624;2023-02-28T05:54:57;5.30;93.00
25450;DHT22;13371;52.080;5.624;2023-02-28T05:57:23;5.10;93.50
25450;DHT22;13371;52.080;5.624;2023-02-28T05:59:48;5.20;93.50
25450;DHT22;13371;52.080;5.624;2023-02-28T06:02:16;5.40;93.20
25450;DHT22;13371;52.080;5.624;2023-02-28T06:04:43;5.70;93.30
25450;DHT22;13371;52.080;5.624;2023-02-28T06:07:09;5.60;92.80
25450;DHT22;13371;52.080;5.624;2023-02-28T06:09:35;5.40;93.40
25450;DHT22;13371;52.080;5.624;2023-02-28T06:12:02;5.30;93.40
25450;DHT22;13371;52.080;5.624;2023-02-28T06:14:29;5.30;93.60
25450;DHT22;13371;52.080;5.624;2023-02-28T06:16:56;5.20;94.10
25450;DHT22;13371;52.080;5.624;2023-02-28T06:19:22;5.30;94.00
25450;DHT22;13371;52.080;5.624;2023-02-28T06:21:51;5.30;93.50
25450;DHT22;13371;52.080;5.624;2023-02-28T06:24:21;5.40;93.60
25450;DHT22;13371;52.080;5.624;2023-02-28T06:26:47;5.60;93.40
25450;DHT22;13371;52.080;5.624;2023-02-28T06:29:13;5.60;93.50
25450;DHT22;13371;52.080;5.624;2023-02-28T06:31:43;5.70;93.20
25450;DHT22;13371;52.080;5.624;2023-02-28T06:34:10;5.50;93.30
25450;DHT22;13371;52.080;5.624;2023-02-28T06:36:37;5.70;93.10
25450;DHT22;13371;52.080;5.624;2023-02-28T06:39:03;5.60;93.40
25450;DHT22;13371;52.080;5.624;2023-02-28T06:41:28;5.60;93.20
25450;DHT22;13371;52.080;5.624;2023-02-28T06:43:54;5.70;93.20
25450;DHT22;13371;52.080;5.624;2023-02-28T06:46:20;5.60;92.90
25450;DHT22;13371;52.080;5.624;2023-02-28T06:48:46;5.70;93.00
25450;DHT22;13371;52.080;5.624;2023-02-28T06:51:21;5.60;92.80
25450;DHT22;13371;52.080;5.624;2023-02-28T06:53:47;5.80;93.00
25450;DHT22;13371;52.080;5.624;2023-02-28T06:56:15;5.50;93.00
25450;DHT22;13371;52.080;5.624;2023-02-28T06:58:41;5.50;93.50
25450;DHT22;13371;52.080;5.624;2023-02-28T07:01:07;5.80;93.10
25450;DHT22;13371;52.080;5.624;2023-02-28T07:03:35;6.00;92.40
25450;DHT22;13371;52.080;5.624;2023-02-28T07:06:01;5.80;92.70
25450;DHT22;13371;52.080;5.624;2023-02-28T07:08:27;5.70;92.70
25450;DHT22;13371;52.080;5.624;2023-02-28T07:10:56;5.80;92.70
25450;DHT22;13371;52.080;5.624;2023-02-28T07:13:22;5.90;92.60
25450;DHT22;13371;52.080;5.624;2023-02-28T07:15:55;6.10;92.40
25450;DHT22;13371;52.080;5.624;2023-02-28T07:18:21;6.20;92.00
25450;DHT22;13371;52.080;5.624;2023-02-28T07:20:47;6.10;91.90
25450;DHT22;13371;52.080;5.624;2023-02-28T07:23:13;6.20;92.10
25450;DHT22;13371;52.080;5.624;2023-02-28T07:25:38;6.20;91.70
25450;DHT22;13371;52.080;5.624;2023-02-28T07:28:04;6.20;91.80
25450;DHT22;13371;52.080;5.624;2023-02-28T07:30:30;6.30;91.40
25450;DHT22;13371;52.080;5.624;2023-02-28T07:32:55;6.20;91.50
25450;DHT22;13371;52.080;5.624;2023-02-28T07:35:22;6.00;91.80
25450;DHT22;13371;52.080;5.624;2023-02-28T07:37:47;6.20;91.70
25450;DHT22;13371;52.080;5.624;2023-02-28T07:40:13;6.00;91.80
25450;DHT22;13371;52.080;5.624;2023-02-28T07:42:40;5.70;92.30
25450;DHT22;13371;52.080;5.624;2023-02-28T07:45:07;5.90;92.20
25450;DHT22;13371;52.080;5.624;2023-02-28T07:47:33;5.40;91.80
25450;DHT22;13371;52.080;5.624;2023-02-28T07:49:59;4.50;93.10
25450;DHT22;13371;52.080;5.624;2023-02-28T07:52:24;4.80;93.90
25450;DHT22;13371;52.080;5.624;2023-02-28T07:54:51;5.10;92.90
25450;DHT22;13371;52.080;5.624;2023-02-28T07:57:17;4.90;92.00
25450;DHT22;13371;52.080;5.624;2023-02-28T07:59:42;4.90;92.40
25450;DHT22;13371;52.080;5.624;2023-02-28T08:02:18;5.30;91.30
25450;DHT22;13371;52.080;5.624;2023-02-28T08:04:44;5.20;91.50
25450;DHT22;13371;52.080;5.624;2023-02-28T08:07:12;4.40;91.10
25450;DHT22;13371;52.080;5.624;2023-02-28T08:09:40;4.80;91.40
25450;DHT22;13371;52.080;5.624;2023-02-28T08:12:07;4.80;90.90
25450;DHT22;13371;52.080;5.624;2023-02-28T08:14:33;4.30;91.40
25450;DHT22;13371;52.080;5.624;2023-02-28T08:16:59;3.90;91.70
25450;DHT22;13371;52.080;5.624;2023-02-28T08:19:24;4.30;91.50
25450;DHT22;13371;52.080;5.624;2023-02-28T08:21:50;4.40;91.10
25450;DHT22;13371;52.080;5.624;2023-02-28T08:24:15;4.10;90.90
25450;DHT22;13371;52.080;5.624;2023-02-28T08:26:41;4.60;91.10
25450;DHT22;13371;52.080;5.624;2023-02-28T08:29:06;4.40;90.30
25450;DHT22;13371;52.080;5.624;2023-02-28T08:31:32;4.60;90.20
25450;DHT22;13371;52.080;5.624;2023-02-28T08:33:58;5.00;89.90
25450;DHT22;13371;52.080;5.624;2023-02-28T08:36:25;5.50;87.30
25450;DHT22;13371;52.080;5.624;2023-02-28T08:38:51;5.40;84.30
25450;DHT22;13371;52.080;5.624;2023-02-28T08:41:17;5.00;85.00
25450;DHT22;13371;52.080;5.624;2023-02-28T08:43:43;5.30;84.90
25450;DHT22;13371;52.080;5.624;2023-02-28T08:46:12;6.20;83.30
25450;DHT22;13371;52.080;5.624;2023-02-28T08:48:38;7.20;81.10
25450;DHT22;13371;52.080;5.624;2023-02-28T08:51:07;7.50;75.00
25450;DHT22;13371;52.080;5.624;2023-02-28T08:53:35;8.30;76.20
25450;DHT22;13371;52.080;5.624;2023-02-28T08:56:03;9.00;72.20
25450;DHT22;13371;52.080;5.624;2023-02-28T08:58:29;7.00;70.60
25450;DHT22;13371;52.080;5.624;2023-02-28T09:00:55;6.90;70.60
25450;DHT22;13371;52.080;5.624;2023-02-28T09:03:21;7.20;74.20
25450;DHT22;13371;52.080;5.624;2023-02-28T09:05:58;7.00;68.20
25450;DHT22;13371;52.080;5.624;2023-02-28T09:08:26;6.90;67.40
25450;DHT22;13371;52.080;5.624;2023-02-28T09:10:52;6.20;70.50
25450;DHT22;13371;52.080;5.624;2023-02-28T09:13:18;6.70;68.90
25450;DHT22;13371;52.080;5.624;2023-02-28T09:15:44;6.80;66.50
25450;DHT22;13371;52.080;5.624;2023-02-28T09:18:10;5.80;68.20
25450;DHT22;13371;52.080;5.624;2023-02-28T09:20:39;6.40;68.00
25450;DHT22;13371;52.080;5.624;2023-02-28T09:23:06;6.60;67.50
25450;DHT22;13371;52.080;5.624;2023-02-28T09:25:32;6.30;68.50
25450;DHT22;13371;52.080;5.624;2023-02-28T09:27:57;6.30;67.60
25450;DHT22;13371;52.080;5.624;2023-02-28T09:30:23;6.40;69.90
25450;DHT22;13371;52.080;5.624;2023-02-28T09:32:49;6.90;68.50
25450;DHT22;13371;52.080;5.624;2023-02-28T09:35:17;6.80;65.50
25450;DHT22;13371;52.080;5.624;2023-02-28T09:37:43;6.90;64.60
25450;DHT22;13371;52.080;5.624;2023-02-28T09:40:10;6.70;65.50
25450;DHT22;13371;52.080;5.624;2023-02-28T09:42:36;6.70;63.60
25450;DHT22;13371;52.080;5.624;2023-02-28T09:45:06;7.20;64.90
25450;DHT22;13371;52.080;5.624;2023-02-28T09:47:39;8.40;63.60
25450;DHT22;13371;52.080;5.624;2023-02-28T09:52:53;6.70;64.80
25450;DHT22;13371;52.080;5.624;2023-02-28T09:55:30;6.10;63.90
25450;DHT22;13371;52.080;5.624;2023-02-28T09:57:57;5.60;65.90
25450;DHT22;13371;52.080;5.624;2023-02-28T10:00:32;6.10;69.60
25450;DHT22;13371;52.080;5.624;2023-02-28T10:05:28;6.90;62.30
25450;DHT22;13371;52.080;5.624;2023-02-28T10:08:15;7.20;63.60
25450;DHT22;13371;52.080;5.624;2023-02-28T10:10:55;8.00;61.30
25450;DHT22;13371;52.080;5.624;2023-02-28T10:13:59;7.30;61.80
25450;DHT22;13371;52.080;5.624;2023-02-28T10:19:17;6.10;63.80
25450;DHT22;13371;52.080;5.624;2023-02-28T10:24:42;7.10;63.10
25450;DHT22;13371;52.080;5.624;2023-02-28T10:27:20;7.40;65.40
25450;DHT22;13371;52.080;5.624;2023-02-28T10:29:48;6.90;63.50
25450;DHT22;13371;52.080;5.624;2023-02-28T10:32:17;5.90;64.40
25450;DHT22;13371;52.080;5.624;2023-02-28T10:34:43;6.40;64.00
25450;DHT22;13371;52.080;5.624;2023-02-28T10:37:11;7.60;65.70
25450;DHT22;13371;52.080;5.624;2023-02-28T10:39:44;7.80;59.50
25450;DHT22;13371;52.080;5.624;2023-02-28T10:42:26;7.70;59.40
25450;DHT22;13371;52.080;5.624;2023-02-28T10:45:14;7.60;58.90
25450;DHT22;13371;52.080;5.624;2023-02-28T10:55:36;8.30;58.10
25450;DHT22;13371;52.080;5.624;2023-02-28T10:58:02;8.20;59.50
25450;DHT22;13371;52.080;5.624;2023-02-28T11:00:33;7.90;60.20
25450;DHT22;13371;52.080;5.624;2023-02-28T11:02:59;7.50;60.50
25450;DHT22;13371;52.080;5.624;2023-02-28T11:05:32;7.80;59.90
25450;DHT22;13371;52.080;5.624;2023-02-28T11:08:10;7.70;60.90
25450;DHT22;13371;52.080;5.624;2023-02-28T11:10:38;7.40;62.80
25450;DHT22;13371;52.080;5.624;2023-02-28T11:13:04;7.70;62.60
25450;DHT22;13371;52.080;5.624;2023-02-28T11:15:32;8.20;60.40
25450;DHT22;13371;52.080;5.624;2023-02-28T11:18:28;8.60;60.10
25450;DHT22;13371;52.080;5.624;2023-02-28T11:20:56;8.80;59.70
25450;DHT22;13371;52.080;5.624;2023-02-28T11:23:25;9.30;60.30
25450;DHT22;13371;52.080;5.624;2023-02-28T11:25:55;9.90;57.80
25450;DHT22;13371;52.080;5.624;2023-02-28T11:28:35;10.70;58.10
25450;DHT22;13371;52.080;5.624;2023-02-28T11:33:32;10.40;56.00
25450;DHT22;13371;52.080;5.624;2023-02-28T11:36:17;10.90;59.10
25450;DHT22;13371;52.080;5.624;2023-02-28T11:38:43;9.10;57.60
25450;DHT22;13371;52.080;5.624;2023-02-28T11:41:27;8.00;59.20
25450;DHT22;13371;52.080;5.624;2023-02-28T11:44:16;7.80;61.70
25450;DHT22;13371;52.080;5.624;2023-02-28T11:46:58;8.80;61.90
25450;DHT22;13371;52.080;5.624;2023-02-28T11:49:51;8.70;57.60
25450;DHT22;13371;52.080;5.624;2023-02-28T11:52:27;7.80;61.50
25450;DHT22;13371;52.080;5.624;2023-02-28T11:58:27;8.10;61.00
25450;DHT22;13371;52.080;5.624;2023-02-28T12:00:57;8.80;60.50
25450;DHT22;13371;52.080;5.624;2023-02-28T12:03:59;9.50;57.30
25450;DHT22;13371;52.080;5.624;2023-02-28T12:09:27;10.70;57.40
25450;DHT22;13371;52.080;5.624;2023-02-28T12:20:14;10.80;53.80
25450;DHT22;13371;52.080;5.624;2023-02-28T12:28:14;9.20;57.60
25450;DHT22;13371;52.080;5.624;2023-02-28T12:30:52;9.00;57.60
25450;DHT22;13371;52.080;5.624;2023-02-28T12:33:24;9.30;57.60
25450;DHT22;13371;52.080;5.624;2023-02-28T12:35:54;9.40;56.80
25450;DHT22;13371;52.080;5.624;2023-02-28T12:38:43;10.20;56.40
25450;DHT22;13371;52.080;5.624;2023-02-28T12:41:19;8.10;57.60
25450;DHT22;13371;52.080;5.624;2023-02-28T12:44:00;8.70;60.50
25450;DHT22;13371;52.080;5.624;2023-02-28T12:46:41;9.40;57.80
25450;DHT22;13371;52.080;5.624;2023-02-28T12:52:18;10.40;57.00
25450;DHT22;13371;52.080;5.624;2023-02-28T12:54:53;8.80;56.10
25450;DHT22;13371;52.080;5.624;2023-02-28T12:57:32;8.20;59.40
25450;DHT22;13371;52.080;5.624;2023-02-28T13:00:15;8.60;58.50
25450;DHT22;13371;52.080;5.624;2023-02-28T13:06:01;9.60;55.80
25450;DHT22;13371;52.080;5.624;2023-02-28T13:11:29;10.90;56.70
25450;DHT22;13371;52.080;5.624;2023-02-28T13:14:05;10.50;53.90
25450;DHT22;13371;52.080;5.624;2023-02-28T13:19:23;10.00;55.00
25450;DHT22;13371;52.080;5.624;2023-02-28T13:21:50;10.50;55.30
25450;DHT22;13371;52.080;5.624;2023-02-28T13:24:44;10.80;54.50
25450;DHT22;13371;52.080;5.624;2023-02-28T13:27:19;10.30;53.50
25450;DHT22;13371;52.080;5.624;2023-02-28T13:29:50;10.40;54.30
25450;DHT22;13371;52.080;5.624;2023-02-28T13:39:54;11.00;54.00
25450;DHT22;13371;52.080;5.624;2023-02-28T13:47:30;10.90;54.60
25450;DHT22;13371;52.080;5.624;2023-02-28T13:56:19;10.10;54.60
25450;DHT22;13371;52.080;5.624;2023-02-28T13:58:55;9.70;54.60
25450;DHT22;13371;52.080;5.624;2023-02-28T14:01:57;9.20;56.30
25450;DHT22;13371;52.080;5.624;2023-02-28T14:04:50;9.60;55.90
25450;DHT22;13371;52.080;5.624;2023-02-28T14:07:30;9.90;54.10
25450;DHT22;13371;52.080;5.624;2023-02-28T14:10:03;10.00;54.80
25450;DHT22;13371;52.080;5.624;2023-02-28T14:12:51;9.70;54.60
25450;DHT22;13371;52.080;5.624;2023-02-28T14:18:05;9.50;56.50
25450;DHT22;13371;52.080;5.624;2023-02-28T14:20:32;9.60;56.90
25450;DHT22;13371;52.080;5.624;2023-02-28T14:23:15;9.90;55.90
25450;DHT22;13371;52.080;5.624;2023-02-28T14:26:11;10.50;55.90
25450;DHT22;13371;52.080;5.624;2023-02-28T14:31:29;10.80;55.10
25450;DHT22;13371;52.080;5.624;2023-02-28T14:36:52;9.90;56.00
25450;DHT22;13371;52.080;5.624;2023-02-28T14:39:28;9.90;55.60
25450;DHT22;13371;52.080;5.624;2023-02-28T14:41:56;9.30;57.60
25450;DHT22;13371;52.080;5.624;2023-02-28T14:44:28;9.80;57.60
25450;DHT22;13371;52.080;5.624;2023-02-28T14:47:00;10.50;57.20
25450;DHT22;13371;52.080;5.624;2023-02-28T14:49:35;10.90;55.50
25450;DHT22;13371;52.080;5.624;2023-02-28T14:52:20;10.90;54.60
25450;DHT22;13371;52.080;5.624;2023-02-28T14:54:52;10.50;54.40
25450;DHT22;13371;52.080;5.624;2023-02-28T14:57:39;10.50;54.00
25450;DHT22;13371;52.080;5.624;2023-02-28T15:00:21;10.30;55.20
25450;DHT22;13371;52.080;5.624;2023-02-28T15:02:46;10.10;55.30
25450;DHT22;13371;52.080;5.624;2023-02-28T15:07:38;10.30;55.00
25450;DHT22;13371;52.080;5.624;2023-02-28T15:12:37;10.40;54.80
25450;DHT22;13371;52.080;5.624;2023-02-28T15:15:05;10.80;54.20
25450;DHT22;13371;52.080;5.624;2023-02-28T15:17:33;10.80;54.40
25450;DHT22;13371;52.080;5.624;2023-02-28T15:19:59;10.70;54.50
25450;DHT22;13371;52.080;5.624;2023-02-28T15:22:35;9.90;55.10
25450;DHT22;13371;52.080;5.624;2023-02-28T15:25:03;9.70;56.70
25450;DHT22;13371;52.080;5.624;2023-02-28T15:27:32;9.80;57.00
25450;DHT22;13371;52.080;5.624;2023-02-28T15:30:16;10.20;56.20
25450;DHT22;13371;52.080;5.624;2023-02-28T15:32:43;10.40;55.80
25450;DHT22;13371;52.080;5.624;2023-02-28T15:37:48;10.30;55.80
25450;DHT22;13371;52.080;5.624;2023-02-28T15:45:50;9.20;56.60
25450;DHT22;13371;52.080;5.624;2023-02-28T15:50:48;9.30;55.70
25450;DHT22;13371;52.080;5.624;2023-02-28T15:53:19;9.10;56.30
25450;DHT22;13371;52.080;5.624;2023-02-28T15:55:53;8.80;57.00
25450;DHT22;13371;52.080;5.624;2023-02-28T15:58:20;9.00;57.40
25450;DHT22;13371;52.080;5.624;2023-02-28T16:01:23;9.20;56.20
25450;DHT22;13371;52.080;5.624;2023-02-28T16:03:50;8.90;57.00
25450;DHT22;13371;52.080;5.624;2023-02-28T16:08:42;8.60;55.90
25450;DHT22;13371;52.080;5.624;2023-02-28T16:11:11;8.70;57.10
25450;DHT22;13371;52.080;5.624;2023-02-28T16:13:37;8.70;55.20
25450;DHT22;13371;52.080;5.624;2023-02-28T16:16:03;8.80;56.40
25450;DHT22;13371;52.080;5.624;2023-02-28T16:18:29;8.90;56.00
25450;DHT22;13371;52.080;5.624;2023-02-28T16:20:54;8.80;54.80
25450;DHT22;13371;52.080;5.624;2023-02-28T16:23:20;8.90;55.80
25450;DHT22;13371;52.080;5.624;2023-02-28T16:25:45;8.90;56.50
25450;DHT22;13371;52.080;5.624;2023-02-28T16:28:24;8.80;56.20
25450;DHT22;13371;52.080;5.624;2023-02-28T16:30:53;8.80;56.00
25450;DHT22;13371;52.080;5.624;2023-02-28T16:33:19;8.80;55.60
25450;DHT22;13371;52.080;5.624;2023-02-28T16:35:44;8.50;56.30
25450;DHT22;13371;52.080;5.624;2023-02-28T16:38:10;8.40;56.60
25450;DHT22;13371;52.080;5.624;2023-02-28T16:40:36;8.40;57.00
25450;DHT22;13371;52.080;5.624;2023-02-28T16:43:05;8.50;57.00
25450;DHT22;13371;52.080;5.624;2023-02-28T16:45:32;8.40;56.90
25450;DHT22;13371;52.080;5.624;2023-02-28T16:47:58;8.50;56.60
25450;DHT22;13371;52.080;5.624;2023-02-28T16:50:26;8.50;57.10
25450;DHT22;13371;52.080;5.624;2023-02-28T16:52:52;8.60;56.70
25450;DHT22;13371;52.080;5.624;2023-02-28T16:55:20;8.70;57.50
25450;DHT22;13371;52.080;5.624;2023-02-28T16:58:06;8.60;56.90
25450;DHT22;13371;52.080;5.624;2023-02-28T17:00:32;8.80;56.80
25450;DHT22;13371;52.080;5.624;2023-02-28T17:02:59;8.90;57.00
25450;DHT22;13371;52.080;5.624;2023-02-28T17:05:26;9.00;56.80
25450;DHT22;13371;52.080;5.624;2023-02-28T17:07:53;9.00;56.60
25450;DHT22;13371;52.080;5.624;2023-02-28T17:10:22;9.00;57.10
25450;DHT22;13371;52.080;5.624;2023-02-28T17:12:48;9.20;57.10
25450;DHT22;13371;52.080;5.624;2023-02-28T17:15:16;9.10;56.80
25450;DHT22;13371;52.080;5.624;2023-02-28T17:17:43;9.10;56.50
25450;DHT22;13371;52.080;5.624;2023-02-28T17:20:14;9.10;56.80
25450;DHT22;13371;52.080;5.624;2023-02-28T17:22:40;8.90;56.80
25450;DHT22;13371;52.080;5.624;2023-02-28T17:25:07;8.70;57.70
25450;DHT22;13371;52.080;5.624;2023-02-28T17:27:33;8.90;57.60
25450;DHT22;13371;52.080;5.624;2023-02-28T17:29:58;8.70;57.90
25450;DHT22;13371;52.080;5.624;2023-02-28T17:32:25;8.90;57.90
25450;DHT22;13371;52.080;5.624;2023-02-28T17:34:51;9.00;57.60
25450;DHT22;13371;52.080;5.624;2023-02-28T17:37:16;9.00;57.80
25450;DHT22;13371;52.080;5.624;2023-02-28T17:39:42;9.10;58.10
25450;DHT22;13371;52.080;5.624;2023-02-28T17:42:07;9.10;58.70
25450;DHT22;13371;52.080;5.624;2023-02-28T17:44:33;8.90;59.20
25450;DHT22;13371;52.080;5.624;2023-02-28T17:46:59;9.00;59.60
25450;DHT22;13371;52.080;5.624;2023-02-28T17:49:25;9.00;59.00
25450;DHT22;13371;52.080;5.624;2023-02-28T17:51:50;8.80;59.70
25450;DHT22;13371;52.080;5.624;2023-02-28T17:54:16;8.60;60.70
25450;DHT22;13371;52.080;5.624;2023-02-28T17:56:42;8.50;61.00
25450;DHT22;13371;52.080;5.624;2023-02-28T17:59:11;8.40;61.80
25450;DHT22;13371;52.080;5.624;2023-02-28T18:01:37;8.20;62.30
25450;DHT22;13371;52.080;5.624;2023-02-28T18:04:03;8.30;62.20
25450;DHT22;13371;52.080;5.624;2023-02-28T18:06:49;8.10;62.80
25450;DHT22;13371;52.080;5.624;2023-02-28T18:09:21;8.20;63.40
25450;DHT22;13371;52.080;5.624;2023-02-28T18:11:51;8.10;64.10